createdAt,value
2018-01-11T00:02:17.296Z,26.08
2018-01-11T00:04:44.744Z,22.60
2018-01-11T00:07:12.180Z,21.60
2018-01-11T00:09:39.640Z,23.98
2018-01-11T00:12:07.136Z,21.98
2018-01-11T00:14:34.612Z,18.52
2018-01-11T00:17:02.041Z,20.27
2018-01-11T00:19:29.488Z,20.48
2018-01-11T00:21:56.924Z,23.38
2018-01-11T00:24:24.428Z,27.25
2018-01-11T00:26:51.864Z,26.60
2018-01-11T00:29:19.300Z,20.73
2018-01-11T00:31:46.741Z,24.50
2018-01-11T00:34:14.200Z,26.80
2018-01-11T00:36:41.660Z,25.83
2018-01-11T00:39:09.109Z,27.02
2018-01-11T00:41:36.553Z,24.40
2018-01-11T00:44:04.030Z,25.40
2018-01-11T00:46:31.536Z,27.75
2018-01-11T00:48:58.984Z,26.08
2018-01-11T00:51:26.483Z,30.42
2018-01-11T00:53:53.892Z,32.45
2018-01-11T00:56:21.339Z,30.27
2018-01-11T00:58:48.788Z,31.90
2018-01-11T01:01:16.236Z,27.10
2018-01-11T01:03:43.686Z,28.65
2018-01-11T01:06:11.141Z,34.47
2018-01-11T01:08:38.634Z,23.10
2018-01-11T01:11:06.064Z,26.03
2018-01-11T01:13:33.499Z,31.53
2018-01-11T01:16:00.965Z,27.73
2018-01-11T01:18:28.399Z,23.48
2018-01-11T01:20:55.866Z,23.40
2018-01-11T01:23:23.308Z,25.42
2018-01-11T01:25:50.768Z,26.92
2018-01-11T01:28:18.228Z,25.20
2018-01-11T01:30:45.756Z,22.52
2018-01-11T01:33:13.205Z,26.83
2018-01-11T01:35:40.661Z,22.08
2018-01-11T01:38:08.175Z,21.10
2018-01-11T01:40:35.636Z,19.77
2018-01-11T01:43:03.084Z,20.27
2018-01-11T01:45:30.543Z,19.53
2018-01-11T01:47:57.980Z,19.55
2018-01-11T01:50:25.422Z,21.97
2018-01-11T01:52:52.868Z,19.77
2018-01-11T01:55:21.080Z,15.10
2018-01-11T01:57:48.764Z,18.37
2018-01-11T02:00:16.216Z,16.42
2018-01-11T02:02:43.660Z,14.35
2018-01-11T02:05:11.126Z,14.35
2018-01-11T02:07:38.565Z,17.87
2018-01-11T02:10:06.017Z,15.50
2018-01-11T02:12:33.469Z,11.95
2018-01-11T02:15:00.936Z,16.98
2018-01-11T02:17:28.368Z,15.48
2018-01-11T02:19:55.792Z,14.20
2018-01-11T02:22:23.283Z,11.85
2018-01-11T02:24:50.733Z,15.80
2018-01-11T02:27:18.964Z,13.38
2018-01-11T02:29:46.413Z,10.73
2018-01-11T02:32:13.863Z,13.43
2018-01-11T02:34:41.336Z,14.48
2018-01-11T02:37:08.941Z,14.80
2018-01-11T02:39:36.365Z,11.73
2018-01-11T02:42:03.812Z,15.52
2018-01-11T02:44:31.250Z,16.48
2018-01-11T02:46:58.709Z,16.37
2018-01-11T02:49:26.166Z,13.10
2018-01-11T02:51:53.616Z,12.98
2018-01-11T02:54:21.057Z,11.95
2018-01-11T02:56:48.500Z,10.87
2018-01-11T02:59:16.709Z,10.20
2018-01-11T03:01:44.136Z,14.23
2018-01-11T03:04:11.584Z,12.27
2018-01-11T03:06:39.028Z,10.20
2018-01-11T03:09:06.472Z,9.30
2018-01-11T03:11:33.924Z,13.45
2018-01-11T03:14:01.368Z,12.20
2018-01-11T03:16:28.806Z,15.27
2018-01-11T03:18:56.265Z,10.52
2018-01-11T03:21:23.787Z,14.93
2018-01-11T03:23:51.228Z,16.23
2018-01-11T03:26:18.674Z,19.07
2018-01-11T03:28:46.126Z,16.60
2018-01-11T03:31:13.570Z,16.73
2018-01-11T03:33:41.012Z,19.27
2018-01-11T03:36:08.463Z,16.55
2018-01-11T03:38:35.929Z,18.15
2018-01-11T03:41:03.385Z,19.23
2018-01-11T03:43:30.887Z,16.08
2018-01-11T03:45:58.342Z,18.13
2018-01-11T03:48:25.780Z,15.90
2018-01-11T03:50:53.231Z,15.77
2018-01-11T03:53:20.679Z,17.67
2018-01-11T03:55:48.133Z,18.35
2018-01-11T03:58:15.689Z,18.07
2018-01-11T04:00:43.142Z,16.33
2018-01-11T04:03:10.582Z,19.30
2018-01-11T04:05:38.036Z,17.35
2018-01-11T04:08:05.509Z,19.17
2018-01-11T04:10:32.961Z,15.23
2018-01-11T04:13:00.404Z,15.57
2018-01-11T04:15:27.847Z,15.73
2018-01-11T04:17:55.295Z,20.00
2018-01-11T04:20:22.752Z,17.00
2018-01-11T04:22:50.962Z,17.37
2018-01-11T04:25:18.404Z,17.95
2018-01-11T04:27:46.040Z,17.20
2018-01-11T04:30:13.492Z,14.48
2018-01-11T04:32:40.926Z,16.92
2018-01-11T04:35:08.376Z,16.00
2018-01-11T04:37:35.811Z,20.05
2018-01-11T04:40:03.389Z,16.30
2018-01-11T04:42:30.858Z,15.65
2018-01-11T04:44:58.316Z,18.30
2018-01-11T04:47:25.770Z,18.98
2018-01-11T04:49:53.512Z,21.17
2018-01-11T04:52:20.952Z,19.52
2018-01-11T04:54:48.407Z,17.17
2018-01-11T04:57:15.844Z,14.55
2018-01-11T04:59:43.292Z,14.60
2018-01-11T05:02:10.725Z,14.93
2018-01-11T05:04:38.172Z,14.17
2018-01-11T05:07:05.629Z,14.13
2018-01-11T05:09:33.080Z,13.10
2018-01-11T05:12:00.580Z,14.75
2018-01-11T05:14:28.017Z,12.63
2018-01-11T05:16:55.467Z,17.30
2018-01-11T05:19:22.940Z,15.05
2018-01-11T05:21:50.375Z,14.70
2018-01-11T05:24:17.831Z,16.48
2018-01-11T05:26:45.277Z,15.35
2018-01-11T05:29:12.736Z,14.95
2018-01-11T05:31:40.176Z,13.03
2018-01-11T05:34:07.712Z,12.90
2018-01-11T05:36:35.166Z,12.95
2018-01-11T05:39:02.620Z,13.13
2018-01-11T05:41:30.056Z,14.83
2018-01-11T05:43:57.515Z,15.20
2018-01-11T05:46:24.969Z,13.40
2018-01-11T05:48:52.419Z,13.52
2018-01-11T05:51:19.861Z,12.60
2018-01-11T05:53:47.317Z,13.30
2018-01-11T05:56:14.836Z,13.07
2018-01-11T05:58:42.306Z,16.85
2018-01-11T06:01:09.749Z,11.80
2018-01-11T06:03:37.194Z,14.60
2018-01-11T06:06:04.647Z,19.13
2018-01-11T06:08:32.092Z,18.20
2018-01-11T06:10:59.544Z,16.30
2018-01-11T06:13:26.971Z,14.50
2018-01-11T06:15:54.436Z,15.95
2018-01-11T06:18:21.924Z,15.57
2018-01-11T06:20:50.145Z,14.87
2018-01-11T06:23:17.593Z,13.27
2018-01-11T06:25:45.192Z,14.65
2018-01-11T06:28:12.644Z,15.00
2018-01-11T06:30:40.112Z,17.12
2018-01-11T06:33:07.545Z,16.33
2018-01-11T06:35:35.029Z,13.57
2018-01-11T06:38:02.478Z,14.80
2018-01-11T06:40:29.960Z,16.37
2018-01-11T06:42:57.400Z,12.05
2018-01-11T06:45:25.624Z,13.50
2018-01-11T06:47:53.089Z,11.93
2018-01-11T06:50:20.516Z,15.95
2018-01-11T06:52:47.972Z,17.70
2018-01-11T06:55:15.404Z,12.03
2018-01-11T06:57:42.844Z,15.70
2018-01-11T07:00:10.321Z,11.67
2018-01-11T07:02:37.772Z,12.67
2018-01-11T07:05:05.199Z,12.47
2018-01-11T07:07:32.640Z,14.83
2018-01-11T07:10:00.075Z,11.43
2018-01-11T07:12:27.520Z,13.33
2018-01-11T07:14:55.025Z,19.13
2018-01-11T07:17:22.470Z,17.47
2018-01-11T07:19:49.911Z,13.50
2018-01-11T07:22:17.372Z,13.90
2018-01-11T07:24:44.955Z,13.00
2018-01-11T07:27:12.389Z,10.70
2018-01-11T07:29:39.848Z,12.20
2018-01-11T07:32:07.300Z,13.17
2018-01-11T07:34:34.736Z,13.57
2018-01-11T07:37:02.965Z,13.70
2018-01-11T07:39:30.434Z,14.90
2018-01-11T07:41:57.880Z,14.37
2018-01-11T07:44:25.325Z,16.03
2018-01-11T07:46:52.865Z,22.33
2018-01-11T07:49:20.303Z,16.67
2018-01-11T07:51:48.524Z,11.40
2018-01-11T07:54:15.966Z,17.33
2018-01-11T07:56:43.415Z,12.70
2018-01-11T07:59:10.958Z,13.27
2018-01-11T08:01:39.311Z,14.27
2018-01-11T08:04:07.033Z,10.50
2018-01-11T08:06:34.616Z,17.20
2018-01-11T08:09:02.283Z,13.15
2018-01-11T08:11:30.739Z,15.43
2018-01-11T08:13:58.824Z,14.40
2018-01-11T08:16:26.401Z,14.50
2018-01-11T08:18:54.004Z,18.23
2018-01-11T08:21:22.543Z,16.37
2018-01-11T08:23:50.118Z,15.37
2018-01-11T08:26:17.682Z,13.53
2018-01-11T08:28:45.322Z,13.10
2018-01-11T08:31:12.903Z,13.90
2018-01-11T08:33:40.442Z,17.73
2018-01-11T08:36:08.033Z,14.57
2018-01-11T08:38:36.352Z,22.23
2018-01-11T08:41:03.935Z,18.93
2018-01-11T08:43:31.510Z,18.97
2018-01-11T08:45:59.068Z,16.87
2018-01-11T08:48:26.688Z,20.27
2018-01-11T08:50:54.257Z,18.20
2018-01-11T08:53:21.861Z,16.67
2018-01-11T08:55:49.461Z,17.30
2018-01-11T08:58:17.800Z,19.47
2018-01-11T09:00:45.398Z,28.30
2018-01-11T09:03:12.991Z,17.40
2018-01-11T09:05:40.572Z,21.20
2018-01-11T09:08:08.166Z,19.13
2018-01-11T09:10:35.858Z,16.57
2018-01-11T09:13:03.531Z,22.33
2018-01-11T09:15:31.089Z,19.10
2018-01-11T09:17:58.702Z,19.00
2018-01-11T09:20:27.021Z,20.20
2018-01-11T09:22:54.594Z,17.00
2018-01-11T09:25:22.208Z,23.47
2018-01-11T09:27:49.814Z,16.43
2018-01-11T09:30:17.360Z,14.20
2018-01-11T09:32:45.122Z,24.03
2018-01-11T09:35:12.812Z,15.60
2018-01-11T09:37:40.386Z,18.10
2018-01-11T09:40:07.963Z,15.73
2018-01-11T09:42:36.484Z,17.90
2018-01-11T09:45:04.074Z,15.90
2018-01-11T09:47:31.671Z,20.60
2018-01-11T09:50:00.111Z,21.70
2018-01-11T09:52:27.847Z,18.83
2018-01-11T09:54:55.435Z,17.37
2018-01-11T09:57:23.044Z,16.13
2018-01-11T09:59:50.655Z,14.80
2018-01-11T10:02:18.219Z,14.77
2018-01-11T10:04:45.818Z,14.57
2018-01-11T10:07:13.424Z,14.00
2018-01-11T10:09:41.022Z,17.17
2018-01-11T10:12:08.631Z,15.87
2018-01-11T10:14:36.191Z,20.27
2018-01-11T10:17:03.859Z,18.60
2018-01-11T10:19:31.641Z,16.67
2018-01-11T10:21:59.186Z,19.40
2018-01-11T10:24:26.774Z,27.60
2018-01-11T10:26:54.375Z,25.63
2018-01-11T10:29:21.918Z,21.60
2018-01-11T10:31:49.524Z,15.17
2018-01-11T10:34:17.115Z,20.07
2018-01-11T10:36:44.671Z,23.90
2018-01-11T10:39:12.279Z,20.97
2018-01-11T10:41:39.953Z,22.03
2018-01-11T10:44:07.523Z,25.10
2018-01-11T10:46:35.110Z,24.17
2018-01-11T10:49:02.703Z,22.53
2018-01-11T10:51:30.283Z,28.60
2018-01-11T10:53:57.949Z,20.20
2018-01-11T10:56:25.528Z,26.80
2018-01-11T10:58:53.163Z,21.73
2018-01-11T11:01:26.308Z,21.40
2018-01-11T11:03:53.859Z,21.77
2018-01-11T11:06:21.486Z,23.13
2018-01-11T11:08:49.076Z,24.03
2018-01-11T11:11:16.666Z,29.00
2018-01-11T11:13:44.231Z,20.77
2018-01-11T11:16:11.849Z,23.27
2018-01-11T11:18:39.407Z,25.60
2018-01-11T11:21:07.053Z,24.57
2018-01-11T11:23:34.817Z,29.10
2018-01-11T11:26:02.510Z,21.50
2018-01-11T11:28:30.074Z,19.67
2018-01-11T11:30:57.762Z,23.33
2018-01-11T11:33:26.098Z,25.63
2018-01-11T11:35:53.641Z,21.30
2018-01-11T11:38:21.272Z,24.30
2018-01-11T11:40:48.899Z,22.70
2018-01-11T11:43:16.488Z,21.57
2018-01-11T11:45:44.390Z,28.77
2018-01-11T11:48:12.095Z,28.03
2018-01-11T11:50:39.638Z,24.63
2018-01-11T11:53:07.219Z,27.50
2018-01-11T11:55:34.794Z,27.83
2018-01-11T11:58:03.163Z,29.93
2018-01-11T12:00:31.504Z,33.03
2018-01-11T12:02:59.083Z,32.83
2018-01-11T12:05:26.682Z,37.63
2018-01-11T12:07:54.379Z,34.50
2018-01-11T12:10:21.959Z,30.87
2018-01-11T12:12:49.566Z,37.80
2018-01-11T12:15:17.256Z,33.50
2018-01-11T12:17:44.851Z,28.30
2018-01-11T12:20:12.475Z,29.30
2018-01-11T12:22:40.240Z,32.70
2018-01-11T12:25:07.843Z,33.20
2018-01-11T12:27:35.407Z,29.27
2018-01-11T12:30:02.987Z,25.70
2018-01-11T12:32:30.680Z,32.87
2018-01-11T12:34:58.262Z,28.93
2018-01-11T12:37:25.867Z,31.10
2018-01-11T12:39:53.630Z,34.57
2018-01-11T12:42:21.195Z,34.33
2018-01-11T12:44:49.502Z,29.23
2018-01-11T12:47:17.084Z,32.80
2018-01-11T12:49:44.634Z,22.10
2018-01-11T12:52:12.400Z,23.50
2018-01-11T12:54:40.086Z,24.43
2018-01-11T12:57:07.708Z,22.97
2018-01-11T12:59:35.266Z,20.10
2018-01-11T13:02:02.863Z,17.20
2018-01-11T13:04:31.211Z,21.43
2018-01-11T13:07:00.920Z,20.47
2018-01-11T13:09:28.679Z,24.53
2018-01-11T13:11:57.118Z,16.47
2018-01-11T13:14:24.718Z,26.60
2018-01-11T13:16:52.328Z,23.23
2018-01-11T13:19:19.866Z,25.13
2018-01-11T13:21:47.501Z,21.20
2018-01-11T13:24:15.074Z,21.87
2018-01-11T13:26:42.656Z,23.17
2018-01-11T13:29:10.203Z,22.07
2018-01-11T13:31:37.799Z,21.50
2018-01-11T13:34:06.165Z,18.47
2018-01-11T13:36:33.773Z,19.13
2018-01-11T13:39:01.370Z,19.20
2018-01-11T13:41:28.984Z,18.70
2018-01-11T13:43:56.534Z,18.10
2018-01-11T13:46:24.115Z,19.03
2018-01-11T13:48:51.687Z,20.83
2018-01-11T13:51:19.233Z,21.77
2018-01-11T13:53:46.837Z,25.60
2018-01-11T13:56:14.394Z,18.17
2018-01-11T13:58:42.934Z,21.37
2018-01-11T14:01:10.504Z,18.70
2018-01-11T14:03:38.088Z,21.20
2018-01-11T14:06:05.690Z,24.00
2018-01-11T14:08:33.280Z,20.07
2018-01-11T14:11:00.833Z,18.17
2018-01-11T14:13:28.424Z,21.40
2018-01-11T14:15:56.016Z,23.70
2018-01-11T14:18:24.359Z,26.23
2018-01-11T14:20:51.949Z,17.27
2018-01-11T14:23:19.506Z,15.40
2018-01-11T14:25:47.083Z,17.93
2018-01-11T14:28:14.739Z,30.03
2018-01-11T14:30:42.291Z,15.70
2018-01-11T14:33:09.866Z,16.93
2018-01-11T14:35:38.186Z,15.00
2018-01-11T14:38:05.768Z,16.97
2018-01-11T14:40:33.497Z,16.10
2018-01-11T14:43:01.208Z,13.30
2018-01-11T14:45:28.766Z,12.87
2018-01-11T14:47:56.334Z,12.60
2018-01-11T14:50:24.715Z,13.53
2018-01-11T14:52:53.034Z,18.47
2018-01-11T14:55:20.628Z,19.13
2018-01-11T14:57:48.695Z,14.97
2018-01-11T15:00:16.270Z,13.73
2018-01-11T15:02:43.884Z,13.73
2018-01-11T15:05:11.678Z,13.17
2018-01-11T15:07:39.460Z,12.63
2018-01-11T15:10:07.100Z,13.27
2018-01-11T15:12:34.663Z,12.77
2018-01-11T15:15:02.255Z,13.40
2018-01-11T15:17:29.963Z,13.93
2018-01-11T15:19:57.559Z,13.47
2018-01-11T15:22:25.115Z,14.63
2018-01-11T15:24:52.947Z,16.70
2018-01-11T15:27:20.608Z,15.33
2018-01-11T15:29:48.207Z,18.87
2018-01-11T15:32:15.808Z,18.03
2018-01-11T15:34:43.361Z,16.40
2018-01-11T15:37:11.032Z,15.43
2018-01-11T15:39:38.584Z,14.00
2018-01-11T15:42:06.187Z,12.17
2018-01-11T15:44:33.774Z,14.90
2018-01-11T15:47:01.320Z,12.83
2018-01-11T15:49:28.971Z,15.03
2018-01-11T15:51:56.757Z,15.93
2018-01-11T15:54:24.325Z,26.40
2018-01-11T15:56:51.871Z,15.47
2018-01-11T15:59:19.496Z,13.83
2018-01-11T16:01:47.061Z,17.13
2018-01-11T16:04:14.643Z,12.87
2018-01-11T16:06:42.187Z,16.93
2018-01-11T16:09:09.760Z,14.67
2018-01-11T16:11:37.337Z,17.87
2018-01-11T16:14:04.903Z,16.07
2018-01-11T16:16:32.476Z,17.17
2018-01-11T16:19:00.078Z,20.73
2018-01-11T16:21:27.632Z,16.37
2018-01-11T16:23:55.303Z,19.97
2018-01-11T16:26:22.887Z,18.40
2018-01-11T16:28:50.466Z,22.47
2018-01-11T16:31:18.051Z,19.93
2018-01-11T16:33:45.633Z,21.23
2018-01-11T16:36:13.212Z,26.70
2018-01-11T16:38:40.757Z,24.73
2018-01-11T16:41:08.355Z,22.10
2018-01-11T16:43:35.899Z,26.20
2018-01-11T16:46:03.540Z,26.93
2018-01-11T16:48:31.313Z,21.90
2018-01-11T16:50:58.899Z,20.63
2018-01-11T16:53:26.509Z,23.37
2018-01-11T16:55:54.101Z,27.53
2018-01-11T16:58:21.685Z,25.10
2018-01-11T17:00:49.217Z,31.97
2018-01-11T17:03:16.892Z,28.00
2018-01-11T17:05:44.477Z,28.30
2018-01-11T17:08:12.791Z,30.70
2018-01-11T17:10:40.374Z,26.27
2018-01-11T17:13:07.975Z,28.93
2018-01-11T17:15:36.434Z,31.30
2018-01-11T17:18:03.987Z,28.00
2018-01-11T17:20:31.760Z,33.40
2018-01-11T17:22:59.315Z,27.50
2018-01-11T17:25:26.907Z,34.13
2018-01-11T17:27:55.243Z,31.00
2018-01-11T17:30:22.822Z,26.53
2018-01-11T17:32:50.430Z,34.10
2018-01-11T17:35:18.024Z,34.73
2018-01-11T17:37:46.104Z,31.07
2018-01-11T17:40:13.695Z,35.37
2018-01-11T17:42:41.285Z,30.30
2018-01-11T17:45:08.825Z,35.00
2018-01-11T17:47:36.411Z,30.50
2018-01-11T17:50:04.279Z,31.80
2018-01-11T17:52:31.818Z,27.33
2018-01-11T17:54:59.395Z,29.50
2018-01-11T17:57:27.188Z,30.20
2018-01-11T17:59:54.980Z,34.07
2018-01-11T18:02:23.304Z,32.63
2018-01-11T18:04:50.872Z,31.03
2018-01-11T18:07:18.317Z,36.03
2018-01-11T18:09:45.762Z,26.57
2018-01-11T18:12:13.210Z,33.87
2018-01-11T18:14:40.656Z,30.40
2018-01-11T18:17:08.100Z,35.03
2018-01-11T18:19:36.321Z,32.47
2018-01-11T18:22:03.768Z,31.87
2018-01-11T18:24:31.430Z,35.97
2018-01-11T18:26:58.851Z,34.90
2018-01-11T18:29:27.092Z,31.93
2018-01-11T18:31:54.536Z,31.37
2018-01-11T18:34:21.987Z,39.17
2018-01-11T18:36:49.421Z,36.87
2018-01-11T18:39:16.888Z,37.00
2018-01-11T18:41:44.560Z,34.13
2018-01-11T18:44:12.251Z,38.03
2018-01-11T18:46:39.830Z,40.23
2018-01-11T18:49:07.370Z,36.87
2018-01-11T18:51:34.951Z,34.30
2018-01-11T18:54:02.536Z,30.90
2018-01-11T18:56:30.043Z,34.03
2018-01-11T18:58:57.544Z,36.17
2018-01-11T19:01:24.993Z,37.70
2018-01-11T19:03:53.222Z,34.00
2018-01-11T19:06:20.749Z,38.90
2018-01-11T19:08:48.212Z,44.50
2018-01-11T19:11:15.690Z,37.80
2018-01-11T19:13:43.119Z,35.20
2018-01-11T19:16:10.576Z,35.73
2018-01-11T19:18:38.040Z,42.37
2018-01-11T19:21:05.467Z,39.70
2018-01-11T19:23:32.906Z,34.57
2018-01-11T19:26:00.337Z,39.10
2018-01-11T19:28:27.853Z,35.47
2018-01-11T19:30:55.280Z,40.63
2018-01-11T19:33:22.736Z,38.83
2018-01-11T19:35:50.176Z,41.53
2018-01-11T19:38:17.761Z,38.90
2018-01-11T19:40:45.208Z,39.70
2018-01-11T19:43:12.648Z,38.70
2018-01-11T19:45:40.104Z,40.13
2018-01-11T19:48:07.554Z,44.60
2018-01-11T19:50:34.983Z,44.30
2018-01-11T19:53:02.424Z,43.50
2018-01-11T19:55:29.870Z,43.67
2018-01-11T19:57:57.306Z,46.53
2018-01-11T20:00:24.756Z,44.07
2018-01-11T20:02:52.216Z,46.53
2018-01-11T20:05:19.640Z,52.23
2018-01-11T20:07:47.107Z,49.63
2018-01-11T20:10:14.548Z,48.40
2018-01-11T20:12:42.068Z,44.17
2018-01-11T20:15:09.517Z,50.17
2018-01-11T20:17:36.973Z,47.67
2018-01-11T20:20:04.420Z,53.37
2018-01-11T20:22:31.872Z,42.53
2018-01-11T20:24:59.329Z,45.83
2018-01-11T20:27:26.773Z,51.70
2018-01-11T20:29:54.220Z,43.50
2018-01-11T20:32:21.661Z,47.73
2018-01-11T20:34:49.135Z,47.50
2018-01-11T20:37:16.553Z,42.80
2018-01-11T20:39:44.014Z,55.40
2018-01-11T20:42:11.464Z,43.93
2018-01-11T20:44:38.934Z,43.70
2018-01-11T20:47:06.384Z,45.27
2018-01-11T20:49:33.815Z,48.63
2018-01-11T20:52:02.231Z,49.63
2018-01-11T20:54:29.665Z,43.23
2018-01-11T20:56:57.248Z,41.63
2018-01-11T20:59:24.683Z,48.43
2018-01-11T21:01:52.350Z,44.03
2018-01-11T21:04:20.536Z,45.07
2018-01-11T21:06:47.972Z,39.80
2018-01-11T21:09:15.412Z,44.17
2018-01-11T21:11:42.870Z,43.17
2018-01-11T21:14:11.067Z,40.00
2018-01-11T21:16:38.517Z,37.67
2018-01-11T21:19:06.180Z,38.80
2018-01-11T21:21:33.612Z,43.03
2018-01-11T21:24:01.066Z,44.67
2018-01-11T21:26:28.503Z,46.23
2018-01-11T21:28:55.960Z,46.83
2018-01-11T21:31:23.399Z,43.00
2018-01-11T21:33:50.865Z,40.37
2018-01-11T21:36:18.308Z,42.53
2018-01-11T21:38:45.768Z,43.33
2018-01-11T21:41:13.277Z,41.87
2018-01-11T21:43:40.724Z,45.03
2018-01-11T21:46:08.926Z,40.33
2018-01-11T21:48:36.385Z,46.73
2018-01-11T21:51:03.853Z,39.33
2018-01-11T21:53:31.291Z,44.63
2018-01-11T21:55:58.749Z,40.92
2018-01-11T21:58:26.194Z,40.97
2018-01-11T22:00:53.636Z,40.03
2018-01-11T22:03:21.072Z,42.17
2018-01-11T22:05:48.845Z,45.73
2018-01-11T22:08:16.311Z,38.60
2018-01-11T22:10:43.752Z,36.63
2018-01-11T22:13:11.213Z,37.30
2018-01-11T22:15:38.682Z,38.97
2018-01-11T22:18:06.137Z,40.23
2018-01-11T22:20:33.628Z,37.33
2018-01-11T22:23:01.051Z,36.23
2018-01-11T22:25:28.496Z,36.20
2018-01-11T22:27:55.939Z,41.53
2018-01-11T22:30:23.400Z,39.67
2018-01-11T22:32:50.862Z,40.53
2018-01-11T22:35:18.313Z,33.20
2018-01-11T22:37:45.798Z,32.20
2018-01-11T22:40:13.240Z,31.57
2018-01-11T22:42:40.701Z,29.80
2018-01-11T22:45:08.152Z,24.80
2018-01-11T22:47:35.608Z,31.53
2018-01-11T22:50:03.041Z,33.33
2018-01-11T22:52:30.513Z,31.50
2018-01-11T22:54:57.953Z,29.87
2018-01-11T22:57:25.397Z,33.63
2018-01-11T22:59:52.860Z,29.12
2018-01-11T23:02:20.293Z,39.25
2018-01-11T23:04:47.759Z,37.93
2018-01-11T23:07:15.184Z,34.67
2018-01-11T23:09:42.669Z,31.10
2018-01-11T23:12:10.117Z,29.50
2018-01-11T23:14:37.582Z,34.93
2018-01-11T23:17:05.025Z,34.53
2018-01-11T23:19:32.449Z,27.73
2018-01-11T23:21:59.904Z,31.43
2018-01-11T23:24:27.349Z,28.50
2018-01-11T23:26:54.808Z,31.47
2018-01-11T23:29:22.245Z,30.83
2018-01-11T23:31:49.780Z,30.40
2018-01-11T23:34:17.240Z,30.27
2018-01-11T23:36:44.672Z,32.97
2018-01-11T23:39:12.118Z,30.77
2018-01-11T23:41:39.580Z,32.50
2018-01-11T23:44:07.072Z,27.37
2018-01-11T23:46:34.516Z,31.13
2018-01-11T23:49:02.844Z,29.83
2018-01-11T23:51:30.299Z,27.07
2018-01-11T23:53:57.820Z,23.87
2018-01-11T23:56:25.264Z,28.07
2018-01-11T23:58:53.493Z,33.60
